Time;durP1;ratioP1;P1;durP2;ratioP2;P2;SDS_P1;SDS_P2;PMS_P1;PMS_P2;Temp;Humidity;BMP_temperature;BMP_pressure;BME280_temperature;BME280_humidity;BME280_pressure;Samples;Min_cycle;Max_cycle;Signal;HPM_P1;HPM_P2
2022/09/09 00:00:33;;;;;;;10.60;9.45;;;;;;;17.24;64.89;100420.94;1686446;84;20945;-73
2022/09/09 00:03:28;;;;;;;10.65;9.65;;;;;;;17.27;64.96;100422.09;1643623;85;20981;-73
2022/09/09 00:06:30;;;;;;;11.33;9.55;;;;;;;17.29;65.02;100420.26;1641868;87;21398;-73
2022/09/09 00:09:21;;;;;;;10.58;9.20;;;;;;;17.30;65.09;100419.34;1644734;86;20968;-73
2022/09/09 00:12:23;;;;;;;9.68;8.58;;;;;;;17.32;65.17;100412.28;1670209;85;21479;-73
2022/09/09 00:15:20;;;;;;;9.65;8.85;;;;;;;17.32;65.30;100413.58;1673067;85;20952;-73
2022/09/09 00:18:19;;;;;;;10.43;9.38;;;;;;;17.31;65.34;100415.34;1672653;85;20917;-73
2022/09/09 00:21:15;;;;;;;11.85;8.85;;;;;;;17.33;65.46;100404.36;1672656;85;21432;-73
2022/09/09 00:24:06;;;;;;;9.68;8.75;;;;;;;17.36;65.51;100401.61;1672953;85;20929;-73
2022/09/09 00:26:57;;;;;;;10.60;9.38;;;;;;;17.36;65.61;100398.99;1672702;85;21397;-73
2022/09/09 00:30:19;;;;;;;9.90;8.75;;;;;;;17.35;65.64;100399.06;1667759;85;20952;-73
2022/09/09 00:33:14;;;;;;;10.72;8.78;;;;;;;17.35;65.76;100393.37;1672451;84;20964;-73
2022/09/09 00:36:02;;;;;;;10.87;8.40;;;;;;;17.34;65.86;100395.60;1673253;85;20952;-72
2022/09/09 00:38:55;;;;;;;10.45;9.30;;;;;;;17.34;65.88;100395.60;1672815;85;20991;-73
2022/09/09 00:41:54;;;;;;;9.70;8.70;;;;;;;17.35;65.96;100395.14;1673221;84;20948;-73
2022/09/09 00:44:55;;;;;;;9.78;8.75;;;;;;;17.30;66.05;100395.36;1672726;85;20896;-73
2022/09/09 00:47:50;;;;;;;9.00;8.20;;;;;;;17.30;66.15;100400.59;1646605;85;20927;-73
2022/09/09 00:50:49;;;;;;;10.43;8.30;;;;;;;17.31;66.27;100400.98;1669907;85;20940;-73
2022/09/09 00:54:01;;;;;;;10.43;9.40;;;;;;;17.32;66.29;100403.98;1673004;85;20920;-73
2022/09/09 00:57:06;;;;;;;10.15;9.33;;;;;;;17.30;66.51;100404.97;1678517;85;20973;-73
2022/09/09 01:00:05;;;;;;;9.48;8.68;;;;;;;17.30;66.59;100407.58;1675651;85;21398;-73
2022/09/09 01:03:17;;;;;;;8.75;7.85;;;;;;;17.28;66.62;100412.03;1651892;85;20953;-73
2022/09/09 01:06:33;;;;;;;9.80;9.00;;;;;;;17.30;66.73;100411.05;1668122;84;21041;-73
2022/09/09 01:09:32;;;;;;;10.08;9.08;;;;;;;17.32;66.73;100417.05;1684099;85;27507;-73
2022/09/09 01:12:27;;;;;;;9.23;8.43;;;;;;;17.35;66.76;100420.82;1665186;85;21083;-73
2022/09/09 01:15:24;;;;;;;11.55;9.15;;;;;;;17.38;66.80;100426.37;1684610;85;21128;-73
2022/09/09 01:18:14;;;;;;;8.25;7.62;;;;;;;17.39;66.90;100430.67;1665896;85;21128;-73
2022/09/09 01:21:37;;;;;;;11.65;7.85;;;;;;;17.39;66.94;100429.37;1684688;83;21115;-73
2022/09/09 01:24:43;;;;;;;9.00;8.35;;;;;;;17.40;66.96;100436.29;1663487;85;21399;-73
2022/09/09 01:27:28;;;;;;;10.23;9.25;;;;;;;17.43;67.05;100437.45;1680143;85;21044;-73
2022/09/09 01:30:17;;;;;;;9.25;7.62;;;;;;;17.42;67.15;100440.53;1674127;85;21031;-73
2022/09/09 01:33:03;;;;;;;9.20;8.30;;;;;;;17.41;67.21;100437.98;1674282;84;21477;-73
2022/09/09 01:35:56;;;;;;;11.50;9.33;;;;;;;17.42;67.24;100439.68;1672961;85;20940;-73
2022/09/09 01:38:41;;;;;;;11.38;9.25;;;;;;;17.43;67.32;100438.30;1657532;86;20954;-73
2022/09/09 01:41:26;;;;;;;11.00;9.98;;;;;;;17.42;67.42;100435.30;1665189;86;20925;-73
2022/09/09 01:44:11;;;;;;;9.95;9.08;;;;;;;17.42;67.47;100434.45;1665443;86;20917;-73
2022/09/09 01:46:57;;;;;;;9.45;8.70;;;;;;;17.42;67.60;100435.30;1665380;86;20926;-73
2022/09/09 01:49:42;;;;;;;9.55;8.75;;;;;;;17.43;67.58;100438.30;1665268;86;20937;-73
2022/09/09 01:52:27;;;;;;;9.53;8.83;;;;;;;17.44;67.68;100441.77;1664731;84;21546;-73
2022/09/09 01:55:12;;;;;;;10.48;9.58;;;;;;;17.44;67.70;100442.61;1664942;86;20957;-74
2022/09/09 01:58:25;;;;;;;11.00;10.10;;;;;;;17.45;67.76;100444.77;1665067;86;20941;-73
2022/09/09 02:01:36;;;;;;;10.20;9.38;;;;;;;17.46;67.78;100443.84;1625826;86;21387;-73
2022/09/09 02:04:40;;;;;;;11.83;10.65;;;;;;;17.47;67.89;100445.08;1657317;86;21559;-73
2022/09/09 02:07:42;;;;;;;10.80;9.43;;;;;;;17.45;67.98;100445.61;1665205;86;21517;-73
2022/09/09 02:10:35;;;;;;;10.90;9.93;;;;;;;17.43;68.06;100442.22;1659885;86;20945;-73
2022/09/09 02:13:22;;;;;;;11.08;10.03;;;;;;;17.43;68.13;100445.30;1665269;86;20914;-73
2022/09/09 02:16:36;;;;;;;9.55;8.65;;;;;;;17.42;68.16;100446.22;1661005;86;20974;-73
2022/09/09 02:19:30;;;;;;;11.25;10.25;;;;;;;17.41;68.24;100445.83;1665491;84;20977;-73
2022/09/09 02:22:19;;;;;;;10.90;9.93;;;;;;;17.39;68.30;100445.89;1665042;84;20929;-73
2022/09/09 02:25:06;;;;;;;10.82;9.70;;;;;;;17.37;68.36;100445.58;1665441;86;20969;-73
2022/09/09 02:27:51;;;;;;;10.80;9.78;;;;;;;17.36;68.45;100455.65;1661573;85;21432;-73
2022/09/09 02:30:38;;;;;;;11.80;10.18;;;;;;;17.33;68.52;100448.80;1654988;86;20969;-73
2022/09/09 02:33:25;;;;;;;;;;;;;;;17.32;68.49;100456.25;1665454;86;20965;-73
2022/09/09 02:36:12;;;;;;;9.63;8.85;;;;;;;17.32;68.89;100453.63;1660273;86;20107;-73
2022/09/09 02:38:57;;;;;;;8.70;8.00;;;;;;;17.31;68.52;100456.31;1668728;85;20894;-73
2022/09/09 02:41:42;;;;;;;11.22;10.23;;;;;;;17.31;68.61;100457.63;1664093;84;21643;-73
2022/09/09 02:44:28;;;;;;;10.08;9.28;;;;;;;17.29;68.66;100448.55;1655627;86;21485;-73
2022/09/09 02:47:18;;;;;;;9.75;8.95;;;;;;;17.28;68.69;100448.62;1669427;85;21056;-73
2022/09/09 02:50:18;;;;;;;9.78;8.78;;;;;;;17.27;68.71;100454.77;1666356;85;21527;-73
2022/09/09 02:53:20;;;;;;;8.60;7.90;;;;;;;17.26;68.81;100454.37;1661753;86;21056;-73
2022/09/09 02:56:19;;;;;;;9.30;8.53;;;;;;;17.24;68.85;100448.38;1641383;87;21535;-74
2022/09/09 02:59:05;;;;;;;8.53;7.80;;;;;;;17.19;68.93;100456.42;1664024;86;21052;-73
2022/09/09 03:01:50;;;;;;;8.28;7.67;;;;;;;17.16;68.96;100460.48;1655227;85;21104;-73
2022/09/09 03:04:35;;;;;;;10.13;9.15;;;;;;;17.13;69.02;100468.48;1658804;85;21048;-73
2022/09/09 03:07:21;;;;;;;13.20;12.05;;;;;;;17.09;69.04;100466.47;1655181;86;21069;-73
2022/09/09 03:10:08;;;;;;;12.50;11.30;;;;;;;17.08;69.08;100472.61;1665680;85;21067;-73
2022/09/09 03:12:53;;;;;;;12.68;11.18;;;;;;;17.07;69.13;100474.84;1665149;85;22379;-73
2022/09/09 03:15:38;;;;;;;12.98;11.53;;;;;;;17.06;69.14;100475.75;1668951;85;21650;-73
2022/09/09 03:18:24;;;;;;;14.00;10.98;;;;;;;17.08;69.21;100480.91;1668858;83;21064;-73
2022/09/09 03:21:09;;;;;;;14.40;12.93;;;;;;;17.09;69.26;100483.91;1668495;85;21512;-73
2022/09/09 03:23:54;;;;;;;14.75;13.40;;;;;;;17.11;69.31;100484.69;1668986;85;21127;-73
2022/09/09 03:26:40;;;;;;;14.68;12.78;;;;;;;17.13;69.28;100472.41;1668556;83;21464;-73
2022/09/09 03:29:25;;;;;;;14.33;12.13;;;;;;;17.14;69.31;100471.03;1670684;85;20945;-73
2022/09/09 03:32:10;;;;;;;13.35;11.85;;;;;;;17.14;69.43;100473.64;1671238;83;20921;-73
2022/09/09 03:34:55;;;;;;;13.30;11.97;;;;;;;17.14;69.42;100478.02;1670417;84;20965;-73
2022/09/09 03:37:41;;;;;;;13.72;12.53;;;;;;;17.14;69.48;100470.19;1668549;85;20909;-73
2022/09/09 03:40:26;;;;;;;13.55;12.45;;;;;;;17.12;69.51;100470.72;1670822;85;21421;-73
2022/09/09 03:43:11;;;;;;;12.37;11.28;;;;;;;17.10;69.56;100479.92;1670737;84;20897;-73
2022/09/09 03:45:59;;;;;;;12.10;11.20;;;;;;;17.06;69.62;100478.37;1670161;84;21516;-73
2022/09/09 03:48:44;;;;;;;13.00;11.80;;;;;;;17.03;69.67;100473.73;1670670;85;21433;-73
2022/09/09 03:51:28;;;;;;;12.18;11.05;;;;;;;17.00;69.68;100479.09;1670357;85;20941;-73
2022/09/09 03:54:13;;;;;;;12.18;10.90;;;;;;;16.95;69.75;100480.61;1670639;85;21441;-73
2022/09/09 03:56:58;;;;;;;12.82;11.73;;;;;;;16.93;69.70;100484.20;1670402;85;20933;-73
2022/09/09 03:59:44;;;;;;;12.43;11.35;;;;;;;16.90;69.76;100489.56;1673762;83;21405;-73
2022/09/09 04:02:29;;;;;;;12.40;11.20;;;;;;;16.85;69.80;100488.45;1670193;83;20942;-73
2022/09/09 04:05:14;;;;;;;10.98;9.98;;;;;;;16.81;69.88;100496.03;1651931;84;254246;-73
2022/09/09 04:07:59;;;;;;;11.40;9.58;;;;;;;16.75;69.92;100494.53;1682081;84;21490;-73
2022/09/09 04:10:49;;;;;;;7.97;7.22;;;;;;;16.70;69.91;100493.88;1683955;84;20976;-73
2022/09/09 04:13:35;;;;;;;9.53;8.68;;;;;;;16.65;69.96;100501.52;1684563;84;21394;-73
2022/09/09 04:16:20;;;;;;;11.33;10.30;;;;;;;16.60;70.01;100501.72;1668547;84;20980;-74
2022/09/09 04:19:07;;;;;;;10.50;9.70;;;;;;;16.57;70.08;100500.54;1670429;84;20992;-73
2022/09/09 04:21:53;;;;;;;11.28;10.32;;;;;;;16.57;70.12;100512.75;1670575;84;38699;-73
2022/09/09 04:24:38;;;;;;;11.83;10.43;;;;;;;16.55;70.17;100513.66;1663688;84;21112;-75
2022/09/09 04:27:23;;;;;;;11.90;10.90;;;;;;;16.57;70.17;100516.20;1662375;84;21076;-74
2022/09/09 04:30:10;;;;;;;7.22;6.62;;;;;;;16.59;70.25;100508.31;1662418;84;21088;-74
2022/09/09 04:32:55;;;;;;;4.67;4.37;;;;;;;16.59;70.30;100516.98;1665508;84;21068;-74
2022/09/09 04:35:45;;;;;;;7.78;7.20;;;;;;;16.58;70.33;100522.27;1663598;84;21057;-74
2022/09/09 04:38:30;;;;;;;6.70;6.17;;;;;;;16.57;70.36;100520.58;1663563;84;21079;-74
2022/09/09 04:41:16;;;;;;;7.30;6.70;;;;;;;16.56;70.42;100524.95;1663175;84;21085;-74
2022/09/09 04:44:02;;;;;;;10.45;9.65;;;;;;;16.56;70.45;100527.56;1663370;84;24715;-74
2022/09/09 04:46:47;;;;;;;11.38;9.78;;;;;;;16.55;70.43;100521.95;1656720;84;22295;-74
2022/09/09 04:49:32;;;;;;;11.48;10.48;;;;;;;16.55;70.48;100530.62;1654916;84;21057;-74
2022/09/09 04:52:18;;;;;;;16.62;10.20;;;;;;;16.55;70.50;100534.55;1663645;86;21639;-75
2022/09/09 04:55:04;;;;;;;10.58;9.70;;;;;;;16.58;70.61;100534.02;1666862;84;21088;-74
2022/09/09 04:57:48;;;;;;;14.47;12.37;;;;;;;16.59;70.69;100541.79;1667933;84;20926;-75
2022/09/09 05:00:37;;;;;;;12.50;11.35;;;;;;;16.61;70.73;100537.35;1663820;84;21485;-74
2022/09/09 05:03:22;;;;;;;12.58;11.38;;;;;;;16.62;70.79;100539.05;1664418;84;21100;-74
2022/09/09 05:06:10;;;;;;;12.07;10.85;;;;;;;16.64;70.81;100539.84;1653316;84;21565;-74
2022/09/09 05:08:55;;;;;;;13.30;11.22;;;;;;;16.67;70.85;100542.77;1617679;83;21124;-74
2022/09/09 05:11:41;;;;;;;13.32;12.33;;;;;;;16.72;70.90;100539.52;1614699;87;21131;-74
2022/09/09 05:14:27;;;;;;;14.73;13.18;;;;;;;16.73;70.95;100542.06;1584374;88;21602;-74
2022/09/09 05:17:13;;;;;;;13.43;12.23;;;;;;;16.77;70.98;100547.55;1665767;86;21079;-74
2022/09/09 05:19:58;;;;;;;16.35;14.93;;;;;;;16.81;71.02;100548.27;1666032;86;21566;-74
2022/09/09 05:22:43;;;;;;;15.48;14.13;;;;;;;16.83;71.02;100551.20;1649031;86;20996;-74
2022/09/09 05:25:28;;;;;;;17.20;15.70;;;;;;;16.85;71.05;100551.14;1639723;84;21122;-74
2022/09/09 05:28:13;;;;;;;16.52;14.93;;;;;;;16.88;71.10;100549.24;1633051;87;21592;-74
2022/09/09 05:31:04;;;;;;;17.02;15.43;;;;;;;16.93;71.14;100558.19;1620225;85;21129;-74
2022/09/09 05:33:52;;;;;;;16.30;14.95;;;;;;;16.95;71.22;100552.44;1634865;87;21091;-74
2022/09/09 05:36:36;;;;;;;16.07;14.65;;;;;;;16.97;71.25;100549.77;1630343;85;21700;-74
2022/09/09 05:39:22;;;;;;;15.83;14.53;;;;;;;17.03;71.27;100554.72;1637303;85;21112;-74
2022/09/09 05:42:07;;;;;;;16.70;15.20;;;;;;;17.09;71.30;100557.06;1636926;85;21094;-74
2022/09/09 05:44:54;;;;;;;17.25;15.53;;;;;;;17.14;71.32;100556.41;1639719;85;21154;-74
2022/09/09 05:47:38;;;;;;;;;;;;;;;17.18;71.37;100556.17;1642699;85;21624;-74
2022/09/09 05:50:23;;;;;;;14.50;13.03;;;;;;;17.24;71.84;100558.98;1646741;85;20486;-74
2022/09/09 05:53:09;;;;;;;15.30;13.98;;;;;;;17.25;71.41;100563.75;1645457;85;21179;-74
2022/09/09 05:56:14;;;;;;;16.10;14.55;;;;;;;17.29;71.48;100559.63;1625867;87;21062;-74
2022/09/09 05:58:57;;;;;;;15.53;14.13;;;;;;;17.31;71.45;100560.41;1637981;87;21157;-74
2022/09/09 06:01:42;;;;;;;14.45;13.25;;;;;;;17.36;71.49;100561.50;1649455;85;21133;-74
2022/09/09 06:04:27;;;;;;;15.55;14.07;;;;;;;17.40;71.52;100565.68;1653190;84;21094;-74
2022/09/09 06:07:14;;;;;;;16.52;14.85;;;;;;;17.43;71.51;100562.47;1635613;85;21125;-74
2022/09/09 06:10:00;;;;;;;15.38;14.07;;;;;;;17.48;71.58;100566.19;1641420;85;28858;-74
2022/09/09 06:12:46;;;;;;;16.00;14.63;;;;;;;17.51;71.58;100573.43;1630856;87;21149;-74
2022/09/09 06:15:31;;;;;;;15.80;14.40;;;;;;;17.55;71.62;100575.45;1640177;85;21179;-74
2022/09/09 06:18:18;;;;;;;14.95;13.65;;;;;;;17.73;71.81;100581.15;1633760;87;21656;-74
2022/09/09 06:21:07;;;;;;;15.65;13.72;;;;;;;18.01;71.79;100574.64;1645298;87;21558;-74
2022/09/09 06:23:53;;;;;;;13.32;12.28;;;;;;;18.16;71.64;100582.61;1609703;87;21101;-74
2022/09/09 06:26:42;;;;;;;13.50;12.13;;;;;;;18.18;71.57;100591.23;1645989;85;21608;-74
2022/09/09 06:29:27;;;;;;;13.72;12.60;;;;;;;18.18;71.63;100589.08;1646268;85;21082;-74
2022/09/09 06:32:12;;;;;;;14.00;12.73;;;;;;;18.16;71.62;100583.07;1640695;85;21187;-74
2022/09/09 06:34:58;;;;;;;13.95;12.73;;;;;;;18.19;71.62;100582.92;1646055;85;21700;-75
2022/09/09 06:37:48;;;;;;;13.00;11.80;;;;;;;18.24;71.67;100587.91;1646883;85;21065;-74
2022/09/09 06:40:32;;;;;;;12.95;11.85;;;;;;;18.26;71.64;100586.91;1645856;85;21118;-74
2022/09/09 06:43:19;;;;;;;12.00;11.08;;;;;;;18.29;71.70;100586.77;1640198;86;21563;-74
2022/09/09 06:46:22;;;;;;;12.15;11.08;;;;;;;18.32;71.68;100581.38;1641221;86;21134;-74
2022/09/09 06:49:09;;;;;;;12.33;11.30;;;;;;;18.38;71.70;100579.78;1630629;84;21116;-74
2022/09/09 06:51:54;;;;;;;;;;;;;;;18.47;71.73;100582.41;1642097;85;21137;-74
2022/09/09 06:54:39;;;;;;;11.50;10.53;;;;;;;18.49;71.93;100584.03;1638910;86;20579;-74
2022/09/09 06:57:24;;;;;;;12.00;10.45;;;;;;;18.46;71.71;100584.64;1629912;85;21371;-74
2022/09/09 07:00:11;;;;;;;11.83;10.63;;;;;;;18.45;71.67;100585.10;1634980;87;21074;-74
2022/09/09 07:02:56;;;;;;;12.47;11.45;;;;;;;18.47;71.72;100584.56;1637957;86;21704;-74
2022/09/09 07:05:41;;;;;;;11.63;10.72;;;;;;;18.55;71.76;100581.57;1637376;86;21145;-74
2022/09/09 07:08:26;;;;;;;12.10;11.20;;;;;;;18.68;71.76;100580.53;1636175;87;21030;-74
2022/09/09 07:11:11;;;;;;;12.00;10.85;;;;;;;18.70;71.71;100586.55;1631754;87;21582;-74
2022/09/09 07:14:00;;;;;;;11.78;10.88;;;;;;;18.70;71.79;100583.47;1634993;86;21134;-74
2022/09/09 07:16:46;;;;;;;11.83;10.55;;;;;;;18.74;71.77;100584.12;1631457;86;21530;-74
2022/09/09 07:19:31;;;;;;;;;;;;;;;18.78;71.79;100593.06;1637963;86;21517;-74
2022/09/09 07:22:16;;;;;;;11.00;10.10;;;;;;;18.85;71.84;100597.08;1636195;86;20198;-74
2022/09/09 07:25:02;;;;;;;11.90;10.98;;;;;;;18.86;71.70;100597.92;1635877;86;21138;-74
2022/09/09 07:27:48;;;;;;;12.58;11.48;;;;;;;18.91;71.66;100595.92;1639890;84;21137;-74
2022/09/09 07:30:33;;;;;;;9.93;9.03;;;;;;;18.99;71.75;100596.84;1635952;86;21545;-73
2022/09/09 07:33:19;;;;;;;10.85;10.05;;;;;;;19.15;71.75;100597.29;1634622;87;21077;-73
2022/09/09 07:36:08;;;;;;;;;;;;;;;19.46;71.84;100606.99;1630176;86;21114;-73
2022/09/09 07:38:58;;;;;;;10.05;8.68;;;;;;;20.58;71.64;100606.94;1590459;90;20215;-72
2022/09/09 07:41:47;;;;;;;9.10;8.43;;;;;;;21.02;71.71;100604.78;1636394;87;21070;-72
2022/09/09 07:44:34;;;;;;;9.78;8.98;;;;;;;22.11;71.18;100609.00;1584982;88;21062;-73
2022/09/09 07:47:19;;;;;;;9.20;8.60;;;;;;;22.73;71.22;100611.94;1645173;85;21086;-73
2022/09/09 07:50:23;;;;;;;;;;;;;;;22.86;70.84;100615.95;1397537;85;40459638;-73
2022/09/09 07:53:08;;;;;;;9.93;8.08;;;;;;;22.91;70.56;100622.58;1683975;84;20201;-73
2022/09/09 07:55:55;;;;;;;9.65;8.75;;;;;;;23.36;70.54;100626.52;1658194;84;22242;-73
2022/09/09 07:58:41;;;;;;;10.58;9.80;;;;;;;23.17;70.17;100622.61;1670372;84;21085;-73
2022/09/09 08:01:30;;;;;;;12.23;11.22;;;;;;;23.02;70.26;100623.17;1656872;82;21070;-73
2022/09/09 08:04:18;;;;;;;12.10;10.98;;;;;;;22.94;70.26;100631.60;1625832;86;21393;-73
2022/09/09 08:07:04;;;;;;;12.03;11.03;;;;;;;22.74;70.03;100630.77;1618813;87;20957;-73
2022/09/09 08:09:49;;;;;;;10.60;9.80;;;;;;;22.46;69.88;100633.04;1653858;85;21149;-73
2022/09/09 08:12:34;;;;;;;10.08;9.35;;;;;;;22.12;69.91;100645.77;1651209;85;20921;-73
2022/09/09 08:15:19;;;;;;;9.63;8.93;;;;;;;21.87;69.89;100637.69;1640847;85;20953;-73
2022/09/09 08:18:04;;;;;;;9.80;9.03;;;;;;;21.64;69.73;100639.14;1648582;85;21385;-73
2022/09/09 08:20:49;;;;;;;11.08;10.18;;;;;;;21.56;69.74;100647.13;1648663;85;20941;-73
2022/09/09 08:23:34;;;;;;;11.70;10.70;;;;;;;21.39;69.42;100644.20;1644245;84;21978;-73
2022/09/09 08:26:23;;;;;;;10.28;9.43;;;;;;;21.23;69.42;100642.14;1648632;85;21917;-73
2022/09/09 08:29:14;;;;;;;9.78;9.08;;;;;;;21.22;69.51;100643.08;1645044;85;20929;-72
2022/09/09 08:31:59;;;;;;;10.53;9.73;;;;;;;21.26;69.36;100645.44;1645255;85;21094;-72
2022/09/09 08:34:44;;;;;;;10.58;9.78;;;;;;;21.23;69.19;100645.62;1645363;85;20973;-72
2022/09/09 08:37:29;;;;;;;10.30;9.45;;;;;;;21.20;69.15;100646.23;1653941;86;21571;-72
2022/09/09 08:40:19;;;;;;;10.65;9.65;;;;;;;21.13;69.03;100648.38;1631981;85;21424;-72
2022/09/09 08:43:06;;;;;;;11.45;10.35;;;;;;;21.14;69.01;100651.39;1664668;84;20913;-72
2022/09/09 08:46:03;;;;;;;8.78;8.18;;;;;;;21.30;68.90;100648.73;1663764;84;28272;-72
2022/09/09 08:49:03;;;;;;;10.48;9.58;;;;;;;21.45;68.65;100643.36;1650086;85;20920;-72
2022/09/09 08:51:49;;;;;;;8.23;7.62;;;;;;;21.59;68.59;100649.10;1654212;85;20960;-72
2022/09/09 08:54:36;;;;;;;9.20;8.35;;;;;;;21.68;68.60;100647.22;1649302;85;21395;-72
2022/09/09 08:57:28;;;;;;;8.03;7.42;;;;;;;21.65;68.43;100648.73;1636103;85;20951;-71
2022/09/09 09:00:14;;;;;;;8.58;7.95;;;;;;;21.66;68.32;100658.31;1648116;86;20920;-72
2022/09/09 09:03:39;;;;;;;9.40;8.70;;;;;;;21.61;68.19;100656.91;1655907;85;20960;-71
2022/09/09 09:06:53;;;;;;;9.08;8.13;;;;;;;21.54;68.19;100653.80;1642499;85;20984;-71
2022/09/09 09:09:46;;;;;;;8.00;7.45;;;;;;;21.48;68.17;100648.44;1655117;86;20941;-71
2022/09/09 09:12:43;;;;;;;8.05;7.28;;;;;;;21.42;68.06;100649.27;1646617;85;20935;-71
2022/09/09 09:15:36;;;;;;;8.63;7.92;;;;;;;21.29;67.97;100653.61;1639709;86;20964;-72
2022/09/09 09:18:20;;;;;;;8.53;7.92;;;;;;;21.09;67.84;100652.97;1639210;85;20935;-72
2022/09/09 09:21:10;;;;;;;9.15;8.45;;;;;;;21.03;67.97;100647.23;1649585;85;21570;-71
2022/09/09 09:24:00;;;;;;;8.08;7.37;;;;;;;20.90;67.90;100640.53;1639826;85;21031;-71
2022/09/09 09:26:44;;;;;;;7.92;7.42;;;;;;;20.86;67.86;100644.73;1623341;84;59043;-72
2022/09/09 09:29:29;;;;;;;8.70;8.10;;;;;;;20.85;67.80;100649.14;1622734;86;21418;-72
2022/09/09 09:32:18;;;;;;;8.25;7.62;;;;;;;20.87;67.77;100647.27;1614799;86;21351;-72
2022/09/09 09:35:09;;;;;;;11.85;8.03;;;;;;;20.78;67.33;100650.47;1624669;86;21136;-72
2022/09/09 09:37:54;;;;;;;7.67;7.08;;;;;;;20.46;67.36;100646.58;1628176;86;21506;-71
2022/09/09 09:40:58;;;;;;;9.65;6.12;;;;;;;20.43;67.65;100641.49;1617084;86;21178;-71
2022/09/09 09:43:46;;;;;;;8.80;8.10;;;;;;;20.48;67.59;100639.92;1630346;86;21141;-71
2022/09/09 09:46:32;;;;;;;7.95;7.35;;;;;;;20.40;67.44;100641.66;1624612;86;21121;-71
2022/09/09 09:49:17;;;;;;;8.63;7.92;;;;;;;20.43;67.51;100641.49;1624090;86;21086;-71
2022/09/09 09:52:05;;;;;;;8.47;7.87;;;;;;;20.45;67.44;100640.94;1596744;87;21676;-71
2022/09/09 09:54:53;;;;;;;7.75;7.05;;;;;;;20.52;67.37;100645.84;1601478;87;21383;-71
2022/09/09 09:57:38;;;;;;;7.58;6.95;;;;;;;20.55;67.32;100652.24;1581999;88;21133;-71
2022/09/09 10:00:23;;;;;;;7.23;6.63;;;;;;;20.59;67.31;100648.51;1589372;88;21679;-71
2022/09/09 10:03:31;;;;;;;6.28;5.78;;;;;;;20.60;67.20;100649.73;1599605;88;21110;-71
2022/09/09 10:06:16;;;;;;;6.47;5.92;;;;;;;20.65;67.22;100652.10;1591971;88;21724;-71
2022/09/09 10:09:04;;;;;;;6.95;6.25;;;;;;;20.72;67.21;100654.76;1593848;88;21073;-71
2022/09/09 10:12:16;;;;;;;7.42;6.80;;;;;;;20.78;67.17;100643.43;1594621;87;20995;-71
2022/09/09 10:15:27;;;;;;;8.78;7.97;;;;;;;20.80;67.03;100641.53;1570405;89;20936;-71
2022/09/09 10:18:41;;;;;;;8.85;8.05;;;;;;;20.85;67.08;100642.58;1565785;89;20996;-71
2022/09/09 10:21:41;;;;;;;11.78;8.83;;;;;;;20.87;66.96;100642.02;1599505;88;20987;-71
2022/09/09 10:25:13;;;;;;;9.18;8.38;;;;;;;20.88;66.89;100643.71;1592199;88;20934;-71
2022/09/09 10:28:26;;;;;;;9.78;8.95;;;;;;;20.91;66.98;100641.38;1579610;88;20944;-71
2022/09/09 10:31:38;;;;;;;10.58;9.50;;;;;;;21.01;66.93;100651.73;1606027;87;20994;-71
2022/09/09 10:34:49;;;;;;;11.30;10.18;;;;;;;21.06;66.85;100652.31;1579199;89;20945;-71
2022/09/09 10:38:17;;;;;;;10.95;9.85;;;;;;;20.99;66.63;100655.77;1579679;89;21015;-71
2022/09/09 10:41:15;;;;;;;8.93;8.13;;;;;;;20.99;66.79;100657.08;1628844;85;21114;-90
2022/09/09 10:44:26;;;;;;;8.23;7.42;;;;;;;21.00;66.67;100656.61;1621390;86;21213;-90
2022/09/09 10:48:08;;;;;;;8.53;7.72;;;;;;;21.12;66.74;100654.11;1575103;87;21145;-89
2022/09/09 10:51:27;;;;;;;7.87;6.28;;;;;;;21.27;66.76;100653.70;1651154;85;21066;-90
2022/09/09 10:54:58;;;;;;;7.70;6.90;;;;;;;21.49;66.67;100653.23;1656201;85;21137;-91
2022/09/09 10:58:03;;;;;;;5.22;4.75;;;;;;;21.60;66.55;100660.47;1528289;92;21162;-91
2022/09/09 11:01:02;;;;;;;5.23;4.73;;;;;;;21.72;66.51;100666.30;1552396;90;21106;-90
2022/09/09 11:03:55;;;;;;;5.42;5.00;;;;;;;21.85;66.47;100664.58;1558713;90;21130;-90
2022/09/09 11:06:46;;;;;;;7.37;5.05;;;;;;;21.95;66.36;100663.54;1546974;90;21714;-93
2022/09/09 11:09:42;;;;;;;4.90;4.42;;;;;;;22.04;66.26;100665.62;1550546;89;21166;-89
2022/09/09 11:12:41;;;;;;;5.30;4.55;;;;;;;22.03;66.20;100667.42;1556131;89;21899;-90
2022/09/09 11:15:51;;;;;;;4.97;4.50;;;;;;;22.05;66.21;100668.64;1555942;90;21053;-92
2022/09/09 11:18:46;;;;;;;5.12;4.62;;;;;;;22.09;66.07;100664.87;1554166;90;21265;-89
2022/09/09 11:21:47;;;;;;;5.08;4.58;;;;;;;22.05;65.96;100662.05;1550545;90;22532;-89
2022/09/09 11:24:40;;;;;;;7.22;4.80;;;;;;;22.08;66.03;100650.01;1551269;90;21193;-89
2022/09/09 11:28:04;;;;;;;6.53;6.00;;;;;;;22.15;65.95;100655.27;1557682;90;21788;-91
2022/09/09 11:31:25;;;;;;;8.98;5.45;;;;;;;22.15;65.86;100660.53;1556685;90;21138;-90
2022/09/09 11:34:40;;;;;;;4.90;4.50;;;;;;;22.10;65.78;100659.51;1580215;87;21111;-90
2022/09/09 11:38:12;;;;;;;5.83;5.00;;;;;;;22.07;65.82;100661.02;1629014;86;21110;-89
2022/09/09 11:41:10;;;;;;;5.75;5.20;;;;;;;21.96;65.71;100658.64;1623881;87;21058;-89
2022/09/09 11:43:55;;;;;;;5.60;5.15;;;;;;;21.91;65.63;100653.66;1620056;86;21536;-89
2022/09/09 11:46:42;;;;;;;5.60;5.03;;;;;;;21.87;65.41;100660.06;1591128;87;21076;-89
2022/09/09 11:49:41;;;;;;;;;;;;;;;21.85;65.51;100653.20;1623225;86;21161;-89
2022/09/09 11:52:42;;;;;;;5.10;4.65;;;;;;;21.88;65.38;100649.06;1625180;86;20231;-89
2022/09/09 11:55:36;;;;;;;5.22;4.72;;;;;;;21.94;65.39;100650.84;1618855;86;21172;-90
2022/09/09 11:58:20;;;;;;;4.58;4.17;;;;;;;22.01;65.30;100644.72;1604999;86;21514;-91
2022/09/09 12:01:29;;;;;;;4.70;4.25;;;;;;;22.08;65.24;100640.80;1624523;86;21065;-90
2022/09/09 12:04:28;;;;;;;2.25;1.37;;;;;;;22.13;65.21;100643.98;1559339;90;21733;-90
2022/09/09 12:07:43;;;;;;;2.33;2.10;;;;;;;22.12;64.88;100632.60;1560132;90;21135;-90
2022/09/09 12:10:39;;;;;;;1.62;1.37;;;;;;;22.17;64.98;100635.41;1556078;90;21204;-91
2022/09/09 12:13:41;;;;;;;2.87;0.90;;;;;;;22.30;64.81;100637.17;1565410;90;21157;-90
2022/09/09 12:16:42;;;;;;;2.35;1.25;;;;;;;22.37;64.62;100638.43;1563413;90;21157;-91
2022/09/09 12:19:30;;;;;;;3.10;0.75;;;;;;;22.46;64.56;100630.41;1555414;90;21072;-92
2022/09/09 12:22:39;;;;;;;0.98;0.60;;;;;;;22.48;64.31;100640.84;1559369;90;21222;-91
2022/09/09 12:25:44;;;;;;;1.27;0.75;;;;;;;22.51;64.24;100628.78;1569828;89;21760;-93
2022/09/09 12:28:55;;;;;;;1.90;0.80;;;;;;;22.59;64.16;100629.13;1555387;90;21422;-92
2022/09/09 12:32:03;;;;;;;1.32;0.55;;;;;;;22.65;63.94;100633.53;1562531;90;21177;-91
2022/09/09 12:34:54;;;;;;;1.12;0.50;;;;;;;22.64;63.75;100633.16;1564586;90;21113;-91
2022/09/09 12:38:01;;;;;;;2.90;1.00;;;;;;;22.63;63.63;100622.72;1557412;90;21599;-91
2022/09/09 12:41:02;;;;;;;2.77;0.98;;;;;;;22.63;63.48;100617.44;1583465;87;21615;-90
2022/09/09 12:43:51;;;;;;;2.47;0.80;;;;;;;22.66;63.31;100614.13;1603539;85;21095;-91
2022/09/09 12:46:59;;;;;;;1.30;0.85;;;;;;;22.64;63.13;100611.23;1606447;87;21100;-93
2022/09/09 12:49:56;;;;;;;1.55;0.60;;;;;;;22.62;63.00;100610.01;1577417;89;21060;-92
2022/09/09 12:52:45;;;;;;;2.10;0.85;;;;;;;22.61;62.88;100609.64;1598656;88;21684;-91
2022/09/09 12:55:36;;;;;;;2.72;0.50;;;;;;;22.62;62.84;100615.75;1569591;89;21356;-91
2022/09/09 12:58:46;;;;;;;0.65;0.55;;;;;;;22.59;62.46;100618.59;1601963;88;21133;-92
2022/09/09 13:01:33;;;;;;;1.40;0.90;;;;;;;22.55;62.28;100610.52;1674548;83;21637;-74
2022/09/09 13:04:24;;;;;;;1.15;0.60;;;;;;;22.53;62.21;100601.86;1677395;83;21043;-74
2022/09/09 13:07:11;;;;;;;1.40;0.88;;;;;;;22.56;62.15;100601.66;1672451;83;21884;-74
2022/09/09 13:09:57;;;;;;;1.62;0.62;;;;;;;22.56;61.86;100603.83;1657075;83;21009;-74
2022/09/09 13:12:43;;;;;;;1.22;0.80;;;;;;;22.58;61.59;100604.56;1669846;83;21698;-74
2022/09/09 13:15:30;;;;;;;1.12;0.60;;;;;;;22.57;61.57;100602.03;1674589;83;21597;-74